Edmonton Stony Plain Alta., Canada
Current Conditions -  °F | °C
As of 10:00 AM on Friday 31 Oct 2014 (Local Time) from CWSE Reporting Station
Broken Clouds Broken Clouds  
Wind Chill: 36°   Ceiling: 10800
Heat Index: 36°   Visibility: 15mi
Dew Point: 34°   Wind: 3mph
Humidity: 93%   Direction: 330°NNW
Pressure: 29.59"   Gusts: NA
Location:  53.53°N, 114.1°W
Report Text: CWSE 311600Z 33003KT 15SM FEW079 BKN108 BKN246 02/01 A2959 RMK SLP046 T00220011 WSI/SWOB
Loading
Personal Weather Stations






























Interactive Weather Map New forecast layout! Learn more

10-Day Weather Forecast

Advertisements
Track Severe Weather on mobile